Time;durP1;ratioP1;P1;durP2;ratioP2;P2;SDS_P1;SDS_P2;PMS_P1;PMS_P2;Temp;Humidity;BMP_temperature;BMP_pressure;BME280_temperature;BME280_humidity;BME280_pressure;Samples;Min_cycle;Max_cycle;Signal;HPM_P1;HPM_P2
2024/01/20 00:00:17;;;;;;;8.77;4.25;;;;;;;-2.72;65.63;100772.34;31623979;28;20039;-63
2024/01/20 00:15:17;;;;;;;13.95;4.28;;;;;;;-2.93;65.74;100769.81;31621926;28;20067;-64
2024/01/20 00:30:18;;;;;;;31.02;10.10;;;;;;;-3.26;64.99;100783.44;31620368;28;20032;-65
2024/01/20 00:45:18;;;;;;;13.20;3.67;;;;;;;-3.53;66.28;100777.66;31617330;28;43170;-62
2024/01/20 01:00:19;;;;;;;15.68;6.82;;;;;;;-3.73;66.17;100791.53;31617516;28;20050;-63
2024/01/20 01:15:19;;;;;;;10.65;4.80;;;;;;;-3.85;66.56;100800.69;31616855;28;20028;-63
2024/01/20 01:30:19;;;;;;;7.03;3.42;;;;;;;-4.04;66.45;100797.16;31616177;28;20033;-65
2024/01/20 01:45:19;;;;;;;13.52;5.32;;;;;;;-4.26;66.65;100793.63;31613337;28;36704;-62
2024/01/20 02:00:20;;;;;;;8.73;4.57;;;;;;;-4.32;67.53;100798.22;31611672;28;41515;-67
2024/01/20 02:15:21;;;;;;;7.85;4.05;;;;;;;-4.09;67.35;100819.00;31622982;28;20099;-63
2024/01/20 02:30:21;;;;;;;10.07;4.35;;;;;;;-3.91;67.47;100824.34;31632293;28;20036;-62
2024/01/20 02:45:21;;;;;;;7.50;3.38;;;;;;;-4.00;67.73;100833.41;31630423;28;42032;-63
2024/01/20 03:00:22;;;;;;;9.32;3.85;;;;;;;-4.13;67.02;100845.19;31629765;28;33485;-65
2024/01/20 03:15:22;;;;;;;12.10;5.47;;;;;;;-4.13;67.96;100866.00;31628135;28;20075;-62
2024/01/20 03:30:22;;;;;;;12.18;4.57;;;;;;;-4.39;67.25;100867.84;31624914;28;42832;-62
2024/01/20 03:45:23;;;;;;;9.35;4.65;;;;;;;-4.83;67.87;100858.19;31624388;28;20060;-66
2024/01/20 04:00:23;;;;;;;21.42;6.35;;;;;;;-4.83;67.73;100868.56;31621444;28;42877;-62
2024/01/20 04:15:23;;;;;;;6.95;3.63;;;;;;;-4.47;67.72;100890.69;31621768;28;20033;-62
2024/01/20 04:30:23;;;;;;;9.00;3.22;;;;;;;-4.26;66.87;100902.91;31618489;28;26601;-66
2024/01/20 04:45:24;;;;;;;8.35;3.22;;;;;;;-4.28;66.76;100916.88;31617375;28;43045;-63
2024/01/20 05:00:24;;;;;;;4.22;2.33;;;;;;;-4.35;66.26;100925.81;31616232;28;41683;-63
2024/01/20 05:15:25;;;;;;;8.40;3.25;;;;;;;-4.17;66.85;100940.75;31614093;28;42662;-64
2024/01/20 05:30:25;;;;;;;3.78;2.35;;;;;;;-3.86;66.78;100950.00;31613566;28;20079;-61
2024/01/20 05:45:25;;;;;;;9.18;3.65;;;;;;;-3.78;65.56;100970.53;31616843;28;20105;-62
2024/01/20 06:00:26;;;;;;;8.52;3.50;;;;;;;-4.14;65.40;100976.19;31634601;28;20481;-63
2024/01/20 06:15:26;;;;;;;3.78;2.83;;;;;;;-4.15;64.64;100988.38;31631268;28;37216;-64
2024/01/20 06:30:26;;;;;;;5.18;2.92;;;;;;;-4.36;65.19;100986.56;31631035;28;41798;-63
2024/01/20 06:45:33;;;;;;;7.90;3.17;;;;;;;-4.17;65.76;101003.22;31626587;28;29292;-63
2024/01/20 07:00:33;;;;;;;8.10;2.78;;;;;;;-3.86;65.63;101015.06;31626253;28;20039;-63
2024/01/20 07:15:33;;;;;;;6.28;3.13;;;;;;;-3.36;65.39;100995.81;31623723;28;43220;-64
2024/01/20 07:30:34;;;;;;;6.80;3.08;;;;;;;-2.89;65.01;101000.00;31623085;28;41720;-63
2024/01/20 07:45:34;;;;;;;4.88;3.17;;;;;;;-1.73;64.33;101015.84;31622144;28;20115;-63
2024/01/20 08:00:34;;;;;;;10.35;4.15;;;;;;;-0.35;63.05;101037.00;31620740;28;20064;-62
2024/01/20 08:15:35;;;;;;;13.00;3.85;;;;;;;1.37;60.84;101055.66;31617182;28;38287;-65
2024/01/20 08:30:35;;;;;;;10.00;4.18;;;;;;;6.66;55.77;101067.69;31617481;28;41594;-64
2024/01/20 08:45:35;;;;;;;8.85;4.60;;;;;;;10.85;47.03;101074.06;31614922;28;40970;-65
2024/01/20 09:00:35;;;;;;;9.05;5.13;;;;;;;13.36;39.58;101094.72;31447175;28;96852;-64
2024/01/20 09:15:36;;;;;;;11.45;5.30;;;;;;;15.67;33.61;101110.75;31080036;28;125643;-63
2024/01/20 09:30:36;;;;;;;7.55;4.18;;;;;;;16.70;27.85;101123.63;31099641;28;126677;-62
2024/01/20 09:45:38;;;;;;;7.15;4.18;;;;;;;18.50;25.48;101118.22;31100413;28;97274;-64
2024/01/20 10:00:40;;;;;;;6.80;3.37;;;;;;;19.57;22.35;101105.00;31097187;28;97394;-64
2024/01/20 10:15:40;;;;;;;7.13;3.20;;;;;;;19.80;22.13;101099.19;31097914;28;97253;-62
2024/01/20 10:30:41;;;;;;;6.23;3.13;;;;;;;21.25;20.96;101105.34;31096537;28;97553;-69
2024/01/20 10:45:47;;;;;;;7.32;3.33;;;;;;;23.10;19.43;101097.38;31094414;28;97893;-68
2024/01/20 11:00:49;;;;;;;10.57;5.47;;;;;;;24.98;17.78;101102.97;31093640;28;96751;-67
2024/01/20 11:15:51;;;;;;;9.67;4.57;;;;;;;25.24;16.13;101095.25;31089423;28;97466;-66
2024/01/20 11:30:51;;;;;;;6.33;3.93;;;;;;;26.51;15.76;101072.00;31089887;28;96702;-68
2024/01/20 11:45:52;;;;;;;6.60;3.55;;;;;;;28.62;14.25;101084.50;31087732;28;98377;-68
2024/01/20 12:00:53;;;;;;;5.70;3.30;;;;;;;28.10;14.13;101060.78;31196078;28;97243;-66
2024/01/20 12:15:54;;;;;;;7.18;4.10;;;;;;;28.90;13.94;101052.28;31616677;28;95039;-68
2024/01/20 12:30:54;;;;;;;6.30;3.40;;;;;;;27.95;13.84;101043.13;31618213;28;41842;-68
2024/01/20 12:45:54;;;;;;;6.18;3.33;;;;;;;27.81;14.18;101050.19;31477079;28;96768;-68
2024/01/20 13:00:55;;;;;;;8.50;4.35;;;;;;;26.08;15.22;101060.00;31583618;28;96621;-68
2024/01/20 13:15:55;;;;;;;6.88;3.10;;;;;;;25.16;15.74;101052.88;31611594;28;43180;-64
2024/01/20 13:30:55;;;;;;;4.85;2.88;;;;;;;22.73;16.90;101070.31;31611220;28;41658;-63
2024/01/20 13:45:55;;;;;;;7.13;3.23;;;;;;;21.72;17.92;101057.03;31610572;28;42020;-63
2024/01/20 14:00:56;;;;;;;8.02;3.55;;;;;;;20.31;19.15;101088.69;31609840;28;42808;-67
2024/01/20 14:15:56;;;;;;;7.88;4.28;;;;;;;-147.20;100.00;63046.97;31461916;28;96856;-64
2024/01/20 14:30:56;;;;;;;8.75;4.22;;;;;;;-147.20;100.00;63046.97;31674072;28;34805;-63
2024/01/20 14:45:56;;;;;;;7.38;3.25;;;;;;;-147.20;100.00;63046.97;31673148;28;20398;-67
2024/01/20 15:00:57;;;;;;;8.75;4.25;;;;;;;-147.20;100.00;63046.97;31671665;28;20496;-65
2024/01/20 15:15:57;;;;;;;10.00;4.80;;;;;;;-147.20;100.00;63046.97;31667911;28;25478;-64
2024/01/20 15:30:57;;;;;;;6.82;3.70;;;;;;;-147.20;100.00;63046.97;31666810;28;34368;-67
2024/01/20 15:45:58;;;;;;;7.25;3.90;;;;;;;-147.20;100.00;63046.97;31665916;28;20052;-63
2024/01/20 16:00:58;;;;;;;7.75;4.00;;;;;;;-147.20;100.00;63046.97;31666157;28;20373;-63
2024/01/20 16:15:58;;;;;;;9.43;5.03;;;;;;;-147.20;100.00;63046.97;31664516;28;27490;-64
2024/01/20 16:30:59;;;;;;;14.95;5.53;;;;;;;-147.20;100.00;63046.97;31662116;28;35972;-66
2024/01/20 16:45:59;;;;;;;12.93;5.07;;;;;;;-147.20;100.00;63046.97;31660238;28;20097;-65
2024/01/20 17:01:00;;;;;;;9.90;4.80;;;;;;;-147.20;100.00;63046.97;31660329;28;20114;-68
2024/01/20 17:16:01;;;;;;;7.97;3.85;;;;;;;-147.20;100.00;63046.97;31657629;28;34719;-67
2024/01/20 17:31:01;;;;;;;11.25;5.15;;;;;;;-147.20;100.00;63046.97;31657916;28;33572;-63
2024/01/20 17:46:01;;;;;;;10.98;5.00;;;;;;;-147.20;100.00;63046.97;31668279;28;20040;-63
2024/01/20 18:01:02;;;;;;;10.43;5.20;;;;;;;-147.20;100.00;63046.97;31676748;28;33924;-65
2024/01/20 18:16:02;;;;;;;10.52;4.32;;;;;;;-147.20;100.00;63046.97;31677461;28;20109;-62
2024/01/20 18:31:07;;;;;;;8.23;4.35;;;;;;;-147.20;100.00;63046.97;31675846;28;20036;-65
2024/01/20 18:46:07;;;;;;;;;;;;;;;-147.20;100.00;63046.97;31674166;28;20103;-66
2024/01/20 19:01:08;;;;;;;6.82;4.05;;;;;;;-147.20;100.00;63046.97;31671108;28;19921;-65
2024/01/20 19:16:09;;;;;;;8.93;4.38;;;;;;;-147.20;100.00;63046.97;31669147;28;20055;-63
2024/01/20 19:31:09;;;;;;;7.55;4.00;;;;;;;-147.20;100.00;63046.97;31667836;28;20032;-66
2024/01/20 19:46:09;;;;;;;11.38;4.47;;;;;;;-147.20;100.00;63046.97;31666592;28;35745;-67
2024/01/20 20:01:09;;;;;;;10.15;4.25;;;;;;;-147.20;100.00;63046.97;31665915;28;20035;-64
2024/01/20 20:16:10;;;;;;;7.25;3.75;;;;;;;-147.20;100.00;63046.97;31665253;28;20029;-65
2024/01/20 20:31:10;;;;;;;10.68;3.70;;;;;;;-147.20;100.00;63046.97;31664646;28;20043;-65
2024/01/20 20:46:10;;;;;;;11.93;4.80;;;;;;;-147.20;100.00;63046.97;31660805;28;20056;-64
2024/01/20 21:01:11;;;;;;;8.27;4.28;;;;;;;-147.20;100.00;63046.97;31658818;28;36148;-64
2024/01/20 21:16:11;;;;;;;8.15;4.32;;;;;;;-147.20;100.00;63046.97;31664622;28;20508;-64
2024/01/20 21:31:11;;;;;;;11.35;3.90;;;;;;;-147.20;100.00;63046.97;31681951;28;20038;-65
2024/01/20 21:46:12;;;;;;;8.70;3.97;;;;;;;-147.20;100.00;63046.97;31679676;28;35019;-65
2024/01/20 22:01:12;;;;;;;11.23;4.72;;;;;;;-147.20;100.00;63046.97;31679325;28;35677;-65
2024/01/20 22:16:12;;;;;;;7.50;3.92;;;;;;;-147.20;100.00;63046.97;31675224;28;34501;-63
2024/01/20 22:31:12;;;;;;;7.18;4.43;;;;;;;-147.20;100.00;63046.97;31673389;28;33511;-64
2024/01/20 22:46:15;;;;;;;12.63;3.95;;;;;;;-147.20;100.00;63046.97;31674501;28;20052;-64
2024/01/20 23:01:16;;;;;;;8.30;3.90;;;;;;;-147.20;100.00;63046.97;31674243;28;20055;-67
2024/01/20 23:16:16;;;;;;;5.15;3.28;;;;;;;-147.20;100.00;63046.97;31673496;28;20033;-66
2024/01/20 23:31:16;;;;;;;8.30;3.67;;;;;;;-147.20;100.00;63046.97;31671926;28;34238;-63
2024/01/20 23:46:16;;;;;;;7.65;4.35;;;;;;;-147.20;100.00;63046.97;31670085;28;34482;-65
